Time;durP1;ratioP1;P1;durP2;ratioP2;P2;SDS_P1;SDS_P2;PMS_P1;PMS_P2;Temp;Humidity;BMP_temperature;BMP_pressure;BME280_temperature;BME280_humidity;BME280_pressure;Samples;Min_cycle;Max_cycle;Signal;HPM_P1;HPM_P2
2022/06/11 00:01:34;;;;;;;7.32;4.30;;;17.40;99.90;;;;;;5051909;28;20518;-40
2022/06/11 00:04:05;;;;;;;6.13;4.07;;;17.30;99.90;;;;;;5050259;28;20045;-40
2022/06/11 00:06:33;;;;;;;9.73;4.35;;;17.30;99.90;;;;;;5037816;28;20422;-41
2022/06/11 00:08:59;;;;;;;11.40;4.53;;;17.20;99.90;;;;;;5030881;28;20045;-39
2022/06/11 00:11:25;;;;;;;10.18;4.50;;;17.20;99.90;;;;;;5033703;28;20106;-40
2022/06/11 00:13:52;;;;;;;5.53;3.88;;;17.20;99.90;;;;;;5050865;28;20056;-40
2022/06/11 00:16:22;;;;;;;8.45;3.78;;;17.20;99.90;;;;;;5012424;28;20045;-40
2022/06/11 00:18:49;;;;;;;7.72;4.03;;;17.10;99.90;;;;;;5067345;28;20049;-39
2022/06/11 00:21:16;;;;;;;7.32;3.60;;;17.10;99.90;;;;;;5071699;28;20044;-39
2022/06/11 00:23:42;;;;;;;6.80;3.40;;;17.00;99.90;;;;;;5052420;28;20461;-39
2022/06/11 00:26:10;;;;;;;9.40;3.90;;;17.00;99.90;;;;;;5056548;28;20094;-41
2022/06/11 00:28:36;;;;;;;8.52;4.10;;;17.00;99.90;;;;;;5042771;28;20049;-40
2022/06/11 00:31:03;;;;;;;6.32;3.45;;;16.90;99.90;;;;;;5050688;28;20094;-39
2022/06/11 00:33:29;;;;;;;6.05;3.10;;;16.70;99.90;;;;;;5049916;28;20049;-40
2022/06/11 00:35:55;;;;;;;6.72;3.00;;;16.70;99.90;;;;;;5040026;28;20044;-40
2022/06/11 00:38:22;;;;;;;8.88;2.92;;;16.60;99.90;;;;;;5035370;28;20045;-40
2022/06/11 00:40:49;;;;;;;10.45;2.70;;;16.60;99.90;;;;;;5051116;28;20083;-39
2022/06/11 00:43:18;;;;;;;7.15;2.75;;;16.50;99.90;;;;;;5050018;28;20255;-39
2022/06/11 00:45:59;;;;;;;8.75;2.55;;;16.50;99.90;;;;;;5050820;28;20056;-39
2022/06/11 00:48:36;;;;;;;;;;;16.40;99.90;;;;;;5016887;28;20052;-39
2022/06/11 00:51:12;;;;;;;7.57;2.60;;;16.40;99.90;;;;;;5032819;28;19977;-40
2022/06/11 00:53:45;;;;;;;7.38;3.00;;;16.30;99.90;;;;;;5050189;28;20052;-40
2022/06/11 00:56:22;;;;;;;7.78;2.53;;;16.30;99.90;;;;;;5043214;28;20045;-40
2022/06/11 00:58:50;;;;;;;8.27;2.95;;;16.20;99.90;;;;;;5046123;28;20056;-39
2022/06/11 01:01:20;;;;;;;8.27;3.10;;;16.20;99.90;;;;;;5050546;28;20381;-39
2022/06/11 01:03:47;;;;;;;7.55;3.33;;;16.10;99.90;;;;;;5049702;28;20049;-39
2022/06/11 01:06:42;;;;;;;7.43;2.95;;;16.10;99.90;;;;;;5060073;28;20524;-40
2022/06/11 01:09:13;;;;;;;8.90;3.20;;;16.00;99.90;;;;;;5028226;28;20049;-39
2022/06/11 01:11:52;;;;;;;8.88;2.53;;;15.90;99.90;;;;;;5050383;28;20045;-40
2022/06/11 01:14:36;;;;;;;7.15;2.78;;;15.80;99.90;;;;;;5065370;28;20056;-40
2022/06/11 01:17:26;;;;;;;7.60;2.55;;;15.80;99.90;;;;;;5034310;28;20052;-41
2022/06/11 01:20:16;;;;;;;6.72;2.53;;;15.70;99.90;;;;;;5049488;28;20111;-41
2022/06/11 01:23:11;;;;;;;8.67;2.40;;;15.60;99.90;;;;;;5049512;28;20126;-40
2022/06/11 01:25:42;;;;;;;7.20;2.80;;;15.50;99.90;;;;;;5032361;28;20084;-40
2022/06/11 01:28:34;;;;;;;6.80;2.47;;;15.50;99.90;;;;;;5033764;28;20044;-40
2022/06/11 01:31:12;;;;;;;7.55;2.33;;;15.40;99.90;;;;;;5049906;28;20056;-39
2022/06/11 01:33:48;;;;;;;10.98;2.88;;;15.30;99.90;;;;;;5051600;28;20041;-40
2022/06/11 01:36:22;;;;;;;8.93;2.20;;;15.30;99.90;;;;;;5040887;28;20099;-41
2022/06/11 01:38:57;;;;;;;11.40;2.70;;;15.20;99.90;;;;;;5046788;28;20576;-40
2022/06/11 01:41:48;;;;;;;9.50;2.42;;;15.20;99.90;;;;;;5049676;28;20055;-40
2022/06/11 01:44:24;;;;;;;7.40;2.40;;;15.20;99.90;;;;;;5048882;28;20040;-40
2022/06/11 01:46:53;;;;;;;7.40;2.30;;;15.10;99.90;;;;;;5034409;28;20384;-40
2022/06/11 01:49:21;;;;;;;9.45;2.67;;;15.10;99.90;;;;;;5048602;28;20581;-40
2022/06/11 01:52:14;;;;;;;7.72;2.20;;;15.10;99.90;;;;;;5057147;28;20091;-40
2022/06/11 01:54:40;;;;;;;7.25;1.95;;;15.10;99.90;;;;;;5068923;28;20044;-40
2022/06/11 01:57:34;;;;;;;7.73;2.50;;;15.00;99.90;;;;;;5056917;28;20584;-41
2022/06/11 02:00:05;;;;;;;8.57;2.20;;;15.00;99.90;;;;;;5089668;28;20521;-40
2022/06/11 02:02:49;;;;;;;;;;;15.00;99.90;;;;;;5071090;28;20056;-39
2022/06/11 02:05:30;;;;;;;7.30;2.05;;;14.90;99.90;;;;;;5073265;28;19920;-40
2022/06/11 02:08:03;;;;;;;11.00;2.40;;;14.80;99.90;;;;;;5046453;28;20120;-40
2022/06/11 02:10:44;;;;;;;10.25;2.42;;;14.80;99.90;;;;;;5069263;28;20403;-39
2022/06/11 02:13:50;;;;;;;10.30;2.35;;;14.70;99.90;;;;;;5068338;28;20495;-40
2022/06/11 02:16:44;;;;;;;14.45;2.42;;;14.70;99.90;;;;;;5051409;28;20087;-41
2022/06/11 02:19:13;;;;;;;10.95;2.13;;;14.70;99.90;;;;;;5067872;28;20098;-40
2022/06/11 02:21:49;;;;;;;10.10;2.08;;;14.60;99.90;;;;;;5068460;28;20049;-38
2022/06/11 02:24:25;;;;;;;11.30;2.47;;;14.60;99.90;;;;;;5068561;28;20423;-40
2022/06/11 02:26:54;;;;;;;8.52;2.22;;;14.60;99.90;;;;;;5053410;28;20137;-40
2022/06/11 02:29:22;;;;;;;8.20;2.05;;;14.60;99.90;;;;;;5068341;28;20055;-40
2022/06/11 02:32:03;;;;;;;9.18;2.40;;;14.50;99.90;;;;;;5070727;28;20076;-41
2022/06/11 02:34:29;;;;;;;9.20;2.10;;;14.50;99.90;;;;;;5080217;28;20040;-40
2022/06/11 02:37:03;;;;;;;8.55;2.20;;;14.50;99.90;;;;;;5059770;28;20047;-41
2022/06/11 02:39:33;;;;;;;15.18;2.78;;;14.40;99.90;;;;;;5066150;28;20049;-40
2022/06/11 02:41:59;;;;;;;9.90;2.30;;;14.40;99.90;;;;;;5068880;28;20040;-39
2022/06/11 02:44:26;;;;;;;12.15;2.15;;;14.40;99.90;;;;;;5080966;28;20040;-40
2022/06/11 02:46:52;;;;;;;10.05;2.30;;;14.40;99.90;;;;;;5074153;28;20119;-40
2022/06/11 02:49:20;;;;;;;8.63;2.17;;;14.40;99.90;;;;;;5088144;28;20093;-40
2022/06/11 02:51:48;;;;;;;11.50;2.67;;;14.30;99.90;;;;;;5089111;28;20077;-39
2022/06/11 02:54:15;;;;;;;13.18;2.78;;;14.30;99.90;;;;;;5088429;28;20117;-40
2022/06/11 02:56:42;;;;;;;8.13;2.50;;;14.30;99.90;;;;;;5074669;28;20052;-38
2022/06/11 02:59:08;;;;;;;8.23;2.42;;;14.30;99.90;;;;;;5086299;28;20086;-40
2022/06/11 03:01:34;;;;;;;11.43;2.35;;;14.30;99.90;;;;;;5088957;28;21205;-39
2022/06/11 03:04:01;;;;;;;9.80;2.53;;;14.30;99.90;;;;;;5079099;28;20041;-40
2022/06/11 03:06:27;;;;;;;13.20;2.92;;;14.20;99.90;;;;;;5056365;28;20497;-41
2022/06/11 03:08:55;;;;;;;9.88;2.22;;;14.10;99.90;;;;;;5047477;28;20049;-40
2022/06/11 03:11:21;;;;;;;8.38;2.60;;;14.10;99.90;;;;;;5074602;28;20079;-39
2022/06/11 03:13:47;;;;;;;9.52;2.60;;;14.10;99.90;;;;;;5088141;28;20052;-39
2022/06/11 03:16:13;;;;;;;12.85;2.65;;;14.00;99.90;;;;;;5049232;28;20055;-39
2022/06/11 03:18:39;;;;;;;10.98;3.03;;;14.00;99.90;;;;;;5080296;28;20048;-40
2022/06/11 03:21:05;;;;;;;9.80;2.17;;;14.00;99.90;;;;;;5088949;28;20127;-40
2022/06/11 03:23:31;;;;;;;8.20;2.33;;;14.00;99.90;;;;;;5077533;28;20036;-39
2022/06/11 03:25:58;;;;;;;12.57;2.58;;;14.00;99.90;;;;;;5068500;28;20053;-40
2022/06/11 03:28:27;;;;;;;10.05;2.42;;;13.90;99.90;;;;;;5052074;28;20403;-39
2022/06/11 03:30:53;;;;;;;9.25;2.67;;;13.90;99.90;;;;;;5050804;28;20044;-40
2022/06/11 03:33:20;;;;;;;9.63;2.65;;;13.90;99.90;;;;;;5067686;28;20502;-40
2022/06/11 03:35:49;;;;;;;9.65;2.47;;;13.90;99.90;;;;;;5078967;28;20040;-39
2022/06/11 03:38:16;;;;;;;14.63;2.58;;;13.80;99.90;;;;;;5076713;28;20145;-40
2022/06/11 03:40:42;;;;;;;10.15;2.83;;;13.80;99.90;;;;;;5090291;28;20052;-39
2022/06/11 03:43:08;;;;;;;7.53;2.25;;;13.80;99.90;;;;;;5071258;28;20529;-39
2022/06/11 03:45:35;;;;;;;10.77;2.65;;;13.80;99.90;;;;;;5037322;28;20057;-39
2022/06/11 03:48:01;;;;;;;12.05;3.25;;;13.80;99.90;;;;;;5058196;28;20048;-40
2022/06/11 03:50:36;;;;;;;10.45;2.28;;;13.80;99.90;;;;;;5092129;28;20502;-40
2022/06/11 03:53:02;;;;;;;12.23;3.05;;;13.80;99.90;;;;;;5091409;28;20058;-39
2022/06/11 03:55:28;;;;;;;12.82;3.28;;;13.80;99.90;;;;;;5092070;28;20050;-40
2022/06/11 03:57:54;;;;;;;11.25;2.90;;;13.70;99.90;;;;;;5070198;28;20468;-39
2022/06/11 04:03:12;;;;;;;9.00;2.65;;;13.80;99.90;;;;;;5029332;28;20048;-39
2022/06/11 04:05:40;;;;;;;14.10;3.33;;;13.70;99.90;;;;;;5053547;28;20048;-40
2022/06/11 04:08:06;;;;;;;13.30;3.13;;;13.70;99.90;;;;;;5056275;28;20076;-39
2022/06/11 04:10:32;;;;;;;8.80;3.25;;;13.70;99.90;;;;;;5071749;28;20040;-39
2022/06/11 04:12:58;;;;;;;11.73;3.55;;;13.70;99.90;;;;;;5064566;28;20083;-40
2022/06/11 04:15:24;;;;;;;8.85;3.05;;;13.70;99.90;;;;;;5064460;28;20079;-40
2022/06/11 04:17:50;;;;;;;10.73;3.20;;;13.70;99.90;;;;;;5034452;28;20508;-39
2022/06/11 04:20:16;;;;;;;13.25;3.47;;;13.80;99.90;;;;;;5070783;28;20097;-40
2022/06/11 04:22:43;;;;;;;11.48;3.40;;;13.80;99.90;;;;;;5068633;28;20797;-40
2022/06/11 04:25:13;;;;;;;14.55;3.15;;;13.70;99.90;;;;;;5067713;28;20051;-40
2022/06/11 04:27:39;;;;;;;12.55;3.25;;;13.80;99.90;;;;;;5054719;28;20123;-40
2022/06/11 04:30:05;;;;;;;13.15;3.80;;;13.80;99.90;;;;;;5070937;28;20131;-39
2022/06/11 04:32:31;;;;;;;14.93;3.85;;;13.80;99.90;;;;;;5070229;28;20126;-40
2022/06/11 04:34:57;;;;;;;9.65;3.08;;;13.90;99.90;;;;;;5072386;28;20434;-39
2022/06/11 04:37:26;;;;;;;7.78;3.10;;;14.00;99.90;;;;;;5057352;28;20064;-40
2022/06/11 04:39:54;;;;;;;13.13;3.40;;;14.00;99.90;;;;;;5091309;28;20059;-39
2022/06/11 04:42:21;;;;;;;12.70;3.33;;;14.00;99.90;;;;;;5071209;28;20519;-40
2022/06/11 04:44:47;;;;;;;13.00;4.05;;;14.00;99.90;;;;;;5064287;28;20183;-39
2022/06/11 04:47:17;;;;;;;14.05;3.20;;;14.10;99.90;;;;;;5053193;28;20119;-39
2022/06/11 04:49:46;;;;;;;16.58;4.13;;;14.10;99.90;;;;;;5087427;28;20083;-40
2022/06/11 04:52:11;;;;;;;13.68;3.80;;;14.20;99.90;;;;;;5079107;28;20586;-41
2022/06/11 04:54:37;;;;;;;12.63;3.30;;;14.20;99.90;;;;;;5052867;28;20140;-41
2022/06/11 04:57:03;;;;;;;13.43;3.78;;;14.30;99.90;;;;;;5054972;28;20072;-40
2022/06/11 04:59:32;;;;;;;13.70;3.65;;;14.30;99.90;;;;;;5069293;28;20143;-39
2022/06/11 05:01:58;;;;;;;16.30;3.92;;;14.40;99.90;;;;;;5052549;28;20076;-40
2022/06/11 05:04:25;;;;;;;13.85;3.67;;;14.50;99.90;;;;;;5069681;28;20109;-40
2022/06/11 05:06:51;;;;;;;11.25;3.38;;;14.50;99.90;;;;;;5054438;28;20028;-40
2022/06/11 05:09:19;;;;;;;12.32;4.00;;;14.60;99.90;;;;;;5070378;28;20075;-39
2022/06/11 05:11:46;;;;;;;19.50;3.97;;;14.70;99.90;;;;;;5052352;28;20095;-40
2022/06/11 05:14:12;;;;;;;14.63;4.10;;;14.70;99.90;;;;;;5069170;28;20502;-40
2022/06/11 05:16:41;;;;;;;18.63;4.32;;;14.80;99.90;;;;;;5056424;28;20526;-40
2022/06/11 05:19:08;;;;;;;17.80;4.13;;;14.90;99.90;;;;;;5067787;28;20109;-40
2022/06/11 05:21:34;;;;;;;15.32;3.83;;;15.00;99.90;;;;;;5070323;28;20132;-39
2022/06/11 05:24:00;;;;;;;16.33;4.40;;;15.10;99.90;;;;;;5051145;28;20036;-40
2022/06/11 05:26:34;;;;;;;21.52;5.07;;;15.10;99.90;;;;;;5053080;28;20498;-40
2022/06/11 05:29:00;;;;;;;20.63;4.43;;;15.10;99.90;;;;;;5066987;28;20048;-39
2022/06/11 05:31:26;;;;;;;16.00;4.40;;;15.20;99.90;;;;;;5081865;28;20047;-39
2022/06/11 05:33:51;;;;;;;16.02;4.28;;;15.30;99.90;;;;;;5081419;28;20049;-39
2022/06/11 05:36:19;;;;;;;22.60;5.03;;;15.40;99.90;;;;;;5048823;28;20036;-41
2022/06/11 05:38:45;;;;;;;16.42;4.53;;;15.40;99.90;;;;;;5045328;28;20052;-40
2022/06/11 05:41:10;;;;;;;24.25;5.18;;;15.50;99.90;;;;;;5062187;28;20412;-39
2022/06/11 05:43:36;;;;;;;20.40;5.07;;;15.50;99.90;;;;;;5068793;28;20048;-39
2022/06/11 05:46:05;;;;;;;21.63;5.18;;;15.60;99.90;;;;;;5069608;28;20036;-40
2022/06/11 05:48:36;;;;;;;20.45;4.95;;;15.70;99.90;;;;;;5039816;28;20467;-39
2022/06/11 05:51:03;;;;;;;25.60;5.75;;;15.70;99.90;;;;;;5069376;28;20040;-40
2022/06/11 05:53:34;;;;;;;23.30;5.15;;;15.80;99.90;;;;;;5068753;28;20449;-40
2022/06/11 05:56:02;;;;;;;24.75;5.28;;;15.90;99.90;;;;;;5068842;28;20536;-39
2022/06/11 05:58:45;;;;;;;18.33;5.03;;;16.00;99.90;;;;;;5052608;28;20083;-39
2022/06/11 06:01:14;;;;;;;22.88;5.40;;;16.10;99.90;;;;;;5069440;28;20048;-40
2022/06/11 06:03:39;;;;;;;24.20;5.38;;;16.10;99.90;;;;;;5050580;28;20132;-40
2022/06/11 06:06:05;;;;;;;21.35;5.53;;;16.20;99.90;;;;;;5051423;28;20466;-40
2022/06/11 06:08:31;;;;;;;23.00;5.35;;;16.20;99.90;;;;;;5051724;28;20040;-40
2022/06/11 06:10:57;;;;;;;26.38;5.60;;;16.30;99.90;;;;;;5069322;28;20061;-40
2022/06/11 06:16:06;;;;;;;23.23;6.03;;;16.40;99.90;;;;;;5069151;28;20099;-40
2022/06/11 06:18:32;;;;;;;26.55;5.45;;;16.50;99.90;;;;;;5052634;28;20068;-40
2022/06/11 06:20:57;;;;;;;28.48;6.03;;;16.50;99.90;;;;;;5069370;28;20103;-40
2022/06/11 06:23:23;;;;;;;22.92;5.78;;;16.50;99.90;;;;;;5065526;28;20048;-40
2022/06/11 06:25:49;;;;;;;19.98;5.43;;;16.60;99.90;;;;;;5048458;28;20048;-40
2022/06/11 06:28:15;;;;;;;25.27;5.68;;;16.70;99.90;;;;;;5043051;28;20489;-42
2022/06/11 06:30:40;;;;;;;23.77;5.78;;;16.80;99.90;;;;;;5060382;28;20079;-41
2022/06/11 06:33:06;;;;;;;22.63;5.70;;;16.80;99.90;;;;;;5059917;28;20048;-42
2022/06/11 06:35:32;;;;;;;22.60;5.75;;;16.80;99.90;;;;;;5044063;28;20059;-42
2022/06/11 06:37:58;;;;;;;23.70;5.88;;;16.90;99.90;;;;;;5045684;28;20047;-42
2022/06/11 06:40:24;;;;;;;18.25;5.03;;;16.90;99.90;;;;;;5068805;28;20045;-42
2022/06/11 06:42:50;;;;;;;27.38;5.55;;;17.00;99.90;;;;;;5078617;28;20441;-41
2022/06/11 06:45:16;;;;;;;22.90;6.05;;;17.00;99.90;;;;;;5076405;28;20036;-41
2022/06/11 06:47:42;;;;;;;22.77;5.70;;;17.00;99.90;;;;;;5060310;28;20054;-42
2022/06/11 06:50:09;;;;;;;20.58;5.70;;;17.00;99.90;;;;;;5078897;28;20127;-41
2022/06/11 06:52:35;;;;;;;21.58;5.45;;;17.10;99.90;;;;;;5082462;28;20482;-41
2022/06/11 06:55:00;;;;;;;21.52;5.50;;;17.20;99.90;;;;;;5089289;28;20123;-42
2022/06/11 06:57:26;;;;;;;26.58;6.45;;;17.20;99.90;;;;;;5072361;28;20123;-42
2022/06/11 06:59:52;;;;;;;20.45;5.65;;;17.30;99.90;;;;;;5087642;28;20131;-42
2022/06/11 07:02:18;;;;;;;22.05;5.80;;;17.30;99.90;;;;;;5048362;28;20737;-41
2022/06/11 07:04:44;;;;;;;27.85;5.75;;;17.40;99.90;;;;;;5048405;28;20048;-42
2022/06/11 07:07:15;;;;;;;23.05;5.60;;;17.50;99.90;;;;;;5047372;28;20041;-43
2022/06/11 07:09:41;;;;;;;;;;;17.50;99.90;;;;;;5046544;28;20574;-42
2022/06/11 07:12:07;;;;;;;23.45;5.65;;;17.50;99.90;;;;;;5046447;28;20400;-43
2022/06/11 07:14:32;;;;;;;25.95;5.60;;;17.50;99.90;;;;;;5068707;28;20063;-42
2022/06/11 07:17:02;;;;;;;24.42;5.80;;;17.60;99.90;;;;;;5054252;28;20788;-39
2022/06/11 07:19:38;;;;;;;22.50;5.32;;;17.50;99.90;;;;;;5068518;28;20051;-42
2022/06/11 07:22:11;;;;;;;29.98;6.05;;;17.60;99.90;;;;;;5069436;28;20053;-40
2022/06/11 07:24:40;;;;;;;17.15;5.22;;;17.60;99.90;;;;;;5068548;28;20044;-41
2022/06/11 07:27:11;;;;;;;18.85;5.07;;;17.60;99.90;;;;;;5051229;28;20559;-41
2022/06/11 07:29:43;;;;;;;25.85;5.53;;;17.70;99.90;;;;;;5067942;28;20070;-41
2022/06/11 07:32:13;;;;;;;23.33;5.35;;;17.70;99.90;;;;;;5068094;28;20051;-42
2022/06/11 07:34:40;;;;;;;25.13;5.90;;;17.70;99.90;;;;;;5068240;28;20402;-41
2022/06/11 07:37:06;;;;;;;20.42;4.68;;;17.70;99.90;;;;;;5043537;28;20044;-42
2022/06/11 07:39:32;;;;;;;19.50;5.05;;;17.80;99.90;;;;;;5052269;28;20051;-41
2022/06/11 07:41:57;;;;;;;19.02;4.10;;;17.90;99.90;;;;;;5019936;28;20041;-42
2022/06/11 07:44:23;;;;;;;20.95;4.85;;;18.00;99.90;;;;;;5060961;28;20621;-42
2022/06/11 07:46:49;;;;;;;18.85;4.50;;;18.00;99.90;;;;;;5053376;28;20044;-42
2022/06/11 07:49:14;;;;;;;20.00;4.55;;;18.10;99.90;;;;;;5071446;28;20044;-42
2022/06/11 07:51:40;;;;;;;17.85;4.40;;;18.10;99.90;;;;;;5061044;28;20539;-41
2022/06/11 07:54:06;;;;;;;20.42;4.35;;;18.10;99.90;;;;;;5048320;28;20209;-41
2022/06/11 07:56:32;;;;;;;16.85;4.85;;;18.20;99.90;;;;;;5041221;28;20133;-40
2022/06/11 07:58:58;;;;;;;21.58;4.75;;;18.20;99.90;;;;;;5055970;28;20061;-41
2022/06/11 08:01:23;;;;;;;21.42;4.20;;;18.20;99.90;;;;;;5065022;28;20119;-41
2022/06/11 08:03:49;;;;;;;20.88;4.63;;;18.20;99.90;;;;;;5056272;28;20044;-41
2022/06/11 08:06:15;;;;;;;21.80;4.97;;;18.20;99.90;;;;;;5052750;28;20041;-42
2022/06/11 08:08:41;;;;;;;26.48;5.22;;;18.20;99.90;;;;;;5059048;28;20044;-41
2022/06/11 08:11:07;;;;;;;20.65;5.03;;;18.20;99.90;;;;;;5074099;28;20047;-41
2022/06/11 08:13:33;;;;;;;19.88;5.15;;;18.20;99.90;;;;;;5075330;28;20048;-41
2022/06/11 08:16:00;;;;;;;18.20;5.03;;;18.20;99.90;;;;;;5075152;28;20048;-41
2022/06/11 08:18:27;;;;;;;19.20;4.28;;;18.20;99.90;;;;;;5055388;28;20056;-40
2022/06/11 08:20:53;;;;;;;20.92;4.38;;;18.20;99.90;;;;;;5068331;28;20781;-41
2022/06/11 08:23:21;;;;;;;17.92;4.20;;;18.20;99.90;;;;;;5067777;28;20041;-42
2022/06/11 08:25:47;;;;;;;17.00;4.20;;;18.20;99.90;;;;;;5063741;28;20044;-41
2022/06/11 08:28:15;;;;;;;17.63;4.55;;;18.20;99.90;;;;;;5029136;28;20052;-41
2022/06/11 08:30:41;;;;;;;22.95;4.38;;;18.20;99.90;;;;;;5049348;28;20664;-41
2022/06/11 08:33:07;;;;;;;20.27;4.32;;;18.20;99.90;;;;;;5056180;28;20476;-40
2022/06/11 08:35:34;;;;;;;16.92;4.15;;;18.20;99.90;;;;;;5050389;28;20062;-41
2022/06/11 08:38:01;;;;;;;21.92;3.95;;;18.20;99.90;;;;;;5032730;28;20116;-42
2022/06/11 08:40:30;;;;;;;15.63;3.90;;;18.30;99.90;;;;;;5067914;28;20071;-39
2022/06/11 08:43:13;;;;;;;22.15;4.03;;;18.20;99.90;;;;;;5065688;28;20792;-42
2022/06/11 08:45:45;;;;;;;18.67;4.53;;;18.30;99.90;;;;;;5049985;28;20041;-43
2022/06/11 08:48:13;;;;;;;;;;;18.30;99.90;;;;;;5036752;28;20044;-43
2022/06/11 08:51:00;;;;;;;16.45;3.80;;;18.30;99.90;;;;;;5058717;28;19925;-41
2022/06/11 08:53:26;;;;;;;18.25;4.00;;;18.30;99.90;;;;;;5066973;28;20932;-42
2022/06/11 08:55:51;;;;;;;18.02;3.80;;;18.30;99.90;;;;;;5071009;28;20083;-42
2022/06/11 08:58:39;;;;;;;15.68;3.65;;;18.40;99.90;;;;;;5051155;28;20076;-42
2022/06/11 09:01:14;;;;;;;17.17;3.97;;;18.40;99.90;;;;;;5049329;28;20098;-42
2022/06/11 09:04:11;;;;;;;22.90;4.28;;;18.40;99.90;;;;;;5049729;28;20045;-42
2022/06/11 09:07:06;;;;;;;20.40;4.28;;;18.50;99.90;;;;;;5033085;28;20052;-42
2022/06/11 09:09:59;;;;;;;20.00;4.07;;;18.50;99.90;;;;;;5065687;28;20078;-41
2022/06/11 09:12:53;;;;;;;17.02;3.33;;;18.60;99.90;;;;;;5043037;28;20041;-41
2022/06/11 09:16:16;;;;;;;16.88;3.65;;;18.70;99.90;;;;;;5067252;28;20531;-41
2022/06/11 09:18:45;;;;;;;14.38;3.30;;;18.70;99.90;;;;;;5006836;28;20140;-41
2022/06/11 09:21:29;;;;;;;13.38;3.30;;;18.80;99.90;;;;;;5005862;28;20501;-41
2022/06/11 09:24:20;;;;;;;16.35;3.55;;;18.80;99.90;;;;;;5015229;28;20139;-41
2022/06/11 09:27:04;;;;;;;16.05;3.55;;;18.80;99.90;;;;;;5031649;28;20132;-42
2022/06/11 09:29:42;;;;;;;14.77;2.83;;;18.80;99.90;;;;;;5049414;28;20393;-41
2022/06/11 09:32:14;;;;;;;16.85;4.18;;;18.80;99.90;;;;;;5063850;28;20443;-41
2022/06/11 09:34:50;;;;;;;13.80;3.25;;;18.80;99.90;;;;;;5058259;28;20385;-42
2022/06/11 09:37:25;;;;;;;18.10;3.35;;;18.80;99.90;;;;;;5015461;28;20048;-42
2022/06/11 09:40:02;;;;;;;12.15;2.92;;;18.80;99.90;;;;;;5061085;28;20119;-42
2022/06/11 09:43:02;;;;;;;12.98;2.85;;;18.80;99.90;;;;;;5062636;28;20456;-42
2022/06/11 09:45:41;;;;;;;12.13;2.93;;;18.80;99.90;;;;;;5060515;28;20051;-42
2022/06/11 09:48:54;;;;;;;12.30;2.80;;;18.80;99.90;;;;;;5050177;28;20294;-42
2022/06/11 09:51:40;;;;;;;17.92;2.80;;;18.80;99.90;;;;;;5048373;28;20071;-41
2022/06/11 09:54:20;;;;;;;9.70;2.80;;;18.90;99.90;;;;;;5070480;28;20121;-42
2022/06/11 09:57:19;;;;;;;12.52;2.58;;;18.90;99.90;;;;;;5052409;28;20050;-41
2022/06/11 09:59:51;;;;;;;12.93;2.63;;;18.90;99.90;;;;;;5067666;28;20056;-42
2022/06/11 10:03:02;;;;;;;15.40;3.05;;;18.90;99.90;;;;;;5061775;28;20135;-41
2022/06/11 10:05:42;;;;;;;12.63;2.95;;;19.00;99.90;;;;;;5046465;28;20645;-40
2022/06/11 10:08:29;;;;;;;15.38;2.72;;;19.00;99.90;;;;;;5050122;28;20045;-41
2022/06/11 10:10:56;;;;;;;15.43;2.58;;;18.90;99.90;;;;;;5076660;28;20149;-41
2022/06/11 10:13:49;;;;;;;10.80;2.65;;;18.90;99.90;;;;;;5048270;28;20045;-41
2022/06/11 10:16:36;;;;;;;10.05;2.53;;;19.00;99.90;;;;;;5031127;28;20095;-41
2022/06/11 10:19:16;;;;;;;12.65;2.50;;;18.90;99.90;;;;;;5059086;28;20051;-41
2022/06/11 10:21:53;;;;;;;15.00;2.90;;;19.00;99.90;;;;;;5069132;28;20052;-40
2022/06/11 10:24:21;;;;;;;11.48;3.28;;;19.00;99.90;;;;;;5050171;28;20045;-41
2022/06/11 10:26:53;;;;;;;13.00;2.50;;;19.00;99.90;;;;;;5054152;28;20056;-41
2022/06/11 10:29:21;;;;;;;13.90;2.92;;;19.00;99.90;;;;;;5068153;28;20194;-41
2022/06/11 10:32:02;;;;;;;13.63;3.28;;;19.00;99.90;;;;;;5068824;28;20048;-41
2022/06/11 10:34:29;;;;;;;18.02;3.17;;;19.00;99.90;;;;;;5068395;28;20044;-41
2022/06/11 10:37:15;;;;;;;13.52;3.08;;;19.10;99.90;;;;;;5052835;28;20049;-41
2022/06/11 10:40:02;;;;;;;13.43;2.53;;;19.10;99.90;;;;;;5069659;28;20157;-41
2022/06/11 10:42:31;;;;;;;10.80;1.88;;;19.20;99.90;;;;;;5070044;28;20117;-41
2022/06/11 10:44:58;;;;;;;10.30;2.65;;;19.20;99.90;;;;;;5072651;28;20521;-41
2022/06/11 10:47:50;;;;;;;14.98;2.95;;;19.30;99.90;;;;;;5057102;28;20612;-41
2022/06/11 10:50:35;;;;;;;;;;;19.30;99.90;;;;;;5069311;28;20088;-40
2022/06/11 10:53:12;;;;;;;15.07;2.85;;;19.30;99.90;;;;;;5075567;28;19939;-41
2022/06/11 10:56:04;;;;;;;15.43;3.10;;;19.40;99.90;;;;;;5093332;28;20093;-41
2022/06/11 10:58:48;;;;;;;9.40;2.45;;;19.40;99.90;;;;;;5067783;28;20052;-41
2022/06/11 11:01:40;;;;;;;14.38;2.70;;;19.50;99.90;;;;;;5072885;28;20127;-41
2022/06/11 11:04:14;;;;;;;15.05;2.58;;;19.50;99.90;;;;;;5072146;28;20067;-41
2022/06/11 11:06:41;;;;;;;14.80;3.03;;;19.60;99.90;;;;;;5042994;28;20055;-41
2022/06/11 11:09:21;;;;;;;10.38;2.90;;;19.50;99.90;;;;;;5071967;28;20458;-41
2022/06/11 11:11:55;;;;;;;16.15;2.88;;;19.60;99.90;;;;;;5071920;28;20085;-41
2022/06/11 11:14:40;;;;;;;13.23;2.55;;;19.60;99.90;;;;;;5071533;28;20063;-41
2022/06/11 11:17:21;;;;;;;12.95;2.90;;;19.70;99.90;;;;;;5068667;28;20044;-43
2022/06/11 11:20:29;;;;;;;11.07;2.42;;;19.70;99.90;;;;;;5091729;28;20113;-42
2022/06/11 11:22:40;;;;;;;13.38;2.30;;;19.80;99.90;;;;;;5091738;28;20253;-42
2022/06/11 11:25:16;;;;;;;11.95;2.65;;;19.90;99.90;;;;;;5091511;28;20039;-42
2022/06/11 11:27:47;;;;;;;10.80;2.08;;;20.00;99.90;;;;;;5055152;28;20139;-42
2022/06/11 11:30:15;;;;;;;;;;;19.90;99.90;;;;;;5072321;28;20569;-42
2022/06/11 11:32:43;;;;;;;11.27;2.90;;;19.90;99.90;;;;;;5071643;28;19923;-42
2022/06/11 11:35:22;;;;;;;13.45;2.42;;;20.00;99.90;;;;;;5074409;28;20059;-41
2022/06/11 11:38:19;;;;;;;8.10;2.05;;;19.90;99.90;;;;;;5076743;28;20301;-42
2022/06/11 11:41:04;;;;;;;10.43;2.60;;;19.90;99.90;;;;;;5062744;28;20217;-42
2022/06/11 11:43:42;;;;;;;11.65;2.28;;;20.00;99.90;;;;;;5074614;28;20052;-42
2022/06/11 11:46:18;;;;;;;10.82;2.25;;;20.20;99.90;;;;;;5067703;28;20041;-42
2022/06/11 11:48:48;;;;;;;9.13;2.25;;;20.20;99.90;;;;;;5066386;28;20834;-42
2022/06/11 11:51:28;;;;;;;10.52;2.53;;;20.30;99.90;;;;;;5068406;28;20043;-41
2022/06/11 11:54:06;;;;;;;13.98;2.72;;;20.40;99.90;;;;;;5054227;28;20064;-42
2022/06/11 11:57:03;;;;;;;10.43;2.50;;;20.40;99.90;;;;;;5034098;28;20332;-42
2022/06/11 11:59:41;;;;;;;8.38;2.42;;;20.50;99.90;;;;;;5064882;28;20413;-42
2022/06/11 12:02:31;;;;;;;13.88;2.63;;;20.60;99.90;;;;;;5068347;28;20127;-42
2022/06/11 12:05:23;;;;;;;9.90;2.42;;;20.60;99.90;;;;;;5066915;28;20151;-42
2022/06/11 12:07:51;;;;;;;9.35;2.10;;;20.70;99.90;;;;;;5051133;28;20118;-42
2022/06/11 12:10:28;;;;;;;8.75;1.98;;;20.70;99.90;;;;;;5071856;28;20052;-41
2022/06/11 12:12:55;;;;;;;7.63;1.80;;;20.80;99.90;;;;;;5057049;28;20538;-41
2022/06/11 12:15:27;;;;;;;8.30;1.67;;;20.80;99.90;;;;;;5059585;28;20040;-42
2022/06/11 12:18:00;;;;;;;7.53;1.45;;;20.80;99.90;;;;;;5033726;28;20041;-42
2022/06/11 12:20:46;;;;;;;9.65;1.52;;;21.00;99.90;;;;;;5071311;28;20372;-41
2022/06/11 12:23:18;;;;;;;7.15;1.80;;;20.90;99.90;;;;;;5070541;28;20491;-42
2022/06/11 12:25:46;;;;;;;6.55;1.08;;;21.00;99.90;;;;;;5077669;28;20500;-42
2022/06/11 12:28:15;;;;;;;8.85;1.63;;;21.00;99.90;;;;;;5072126;28;20364;-42
2022/06/11 12:30:41;;;;;;;8.95;1.60;;;21.00;99.90;;;;;;5091101;28;20525;-42
2022/06/11 12:33:14;;;;;;;7.18;1.67;;;21.00;99.90;;;;;;5090563;28;20048;-41
2022/06/11 12:35:58;;;;;;;5.45;1.40;;;21.20;99.90;;;;;;5054754;28;20079;-41
2022/06/11 12:38:40;;;;;;;7.93;1.50;;;21.20;99.90;;;;;;5055520;28;20398;-41
2022/06/11 12:41:31;;;;;;;9.30;1.98;;;21.40;99.90;;;;;;5070747;28;20044;-41
2022/06/11 12:44:25;;;;;;;10.60;1.90;;;21.40;99.90;;;;;;5070382;28;20411;-42
2022/06/11 12:47:09;;;;;;;6.63;1.67;;;21.40;99.90;;;;;;5060895;28;20888;-41
2022/06/11 12:49:45;;;;;;;10.27;2.10;;;21.50;99.90;;;;;;5090011;28;20077;-42
2022/06/11 12:52:48;;;;;;;7.78;1.95;;;21.60;99.90;;;;;;5090426;28;20048;-42
2022/06/11 12:55:42;;;;;;;9.55;2.15;;;21.50;99.90;;;;;;5077265;28;20040;-42
2022/06/11 12:58:15;;;;;;;9.70;2.10;;;21.60;99.90;;;;;;5073844;28;20498;-42
2022/06/11 13:01:03;;;;;;;6.63;2.10;;;21.60;99.90;;;;;;5090643;28;20095;-42
2022/06/11 13:03:44;;;;;;;10.65;2.13;;;21.70;99.90;;;;;;5060912;28;20055;-42
2022/06/11 13:06:40;;;;;;;16.10;2.90;;;21.50;99.90;;;;;;5050657;28;20437;-42
2022/06/11 13:09:26;;;;;;;9.20;2.20;;;21.60;99.90;;;;;;5050945;28;20055;-41
2022/06/11 13:12:14;;;;;;;11.93;2.17;;;21.60;99.90;;;;;;5050439;28;20137;-42
2022/06/11 13:14:51;;;;;;;9.55;2.13;;;21.60;99.90;;;;;;5066782;28;20033;-43
2022/06/11 13:17:47;;;;;;;12.35;2.30;;;21.70;99.90;;;;;;5055883;28;20140;-42